createdAt,value
2018-08-31T00:00:18.578Z,23.20
2018-08-31T00:05:39.534Z,23.18
2018-08-31T00:10:36.251Z,23.17
2018-08-31T00:15:22.830Z,23.21
2018-08-31T00:20:06.220Z,23.16
2018-08-31T00:26:03.865Z,23.23
2018-08-31T00:30:58.195Z,23.16
2018-08-31T00:37:57.255Z,23.19
2018-08-31T00:44:57.327Z,23.18
2018-08-31T00:49:40.618Z,23.13
2018-08-31T00:54:24.105Z,23.18
2018-08-31T00:59:11.337Z,23.11
2018-08-31T01:03:54.658Z,22.95
2018-08-31T01:08:42.069Z,22.94
2018-08-31T01:13:25.336Z,22.81
2018-08-31T01:18:14.667Z,22.81
2018-08-31T01:22:58.059Z,22.81
2018-08-31T01:27:42.551Z,22.76
2018-08-31T01:32:26.046Z,22.73
2018-08-31T01:37:13.059Z,22.65
2018-08-31T01:41:56.762Z,22.59
2018-08-31T01:46:41.178Z,22.48
2018-08-31T01:51:24.602Z,22.42
2018-08-31T01:56:11.380Z,22.35
2018-08-31T02:00:54.780Z,22.34
2018-08-31T02:05:43.909Z,22.38
2018-08-31T02:10:27.375Z,22.28
2018-08-31T02:15:14.694Z,22.14
2018-08-31T02:19:58.088Z,22.28
2018-08-31T02:24:41.326Z,22.49
2018-08-31T02:29:24.642Z,22.79
2018-08-31T02:34:08.014Z,22.89
2018-08-31T02:38:53.111Z,22.86
2018-08-31T02:43:36.519Z,22.68
2018-08-31T02:48:23.824Z,22.56
2018-08-31T02:53:07.579Z,22.58
2018-08-31T02:57:54.045Z,22.60
2018-08-31T03:02:37.543Z,22.57
2018-08-31T03:07:21.991Z,22.03
2018-08-31T03:12:05.377Z,22.08
2018-08-31T03:16:51.919Z,22.00
2018-08-31T03:21:35.290Z,22.03
2018-08-31T03:26:22.711Z,22.22
2018-08-31T03:31:06.197Z,22.23
2018-08-31T03:35:50.567Z,22.10
2018-08-31T03:40:34.249Z,21.68
2018-08-31T03:45:18.916Z,22.03
2018-08-31T03:50:02.382Z,22.08
2018-08-31T03:54:45.873Z,22.04
2018-08-31T03:59:29.364Z,21.97
2018-08-31T04:04:12.813Z,22.01
2018-08-31T04:09:00.137Z,21.91
2018-08-31T04:13:43.591Z,22.14
2018-08-31T04:18:29.722Z,22.33
2018-08-31T04:23:14.027Z,22.42
2018-08-31T04:27:57.636Z,22.44
2018-08-31T04:32:40.982Z,22.50
2018-08-31T04:37:24.880Z,22.51
2018-08-31T04:42:08.330Z,22.50
2018-08-31T04:46:53.221Z,22.51
2018-08-31T04:51:37.020Z,22.58
2018-08-31T04:56:24.524Z,22.57
2018-08-31T05:01:08.104Z,22.67
2018-08-31T05:05:54.767Z,22.81
2018-08-31T05:10:39.169Z,22.86
2018-08-31T05:15:23.626Z,22.94
2018-08-31T05:20:06.976Z,23.05
2018-08-31T05:24:51.367Z,23.15
2018-08-31T05:29:34.765Z,23.32
2018-08-31T05:34:19.245Z,23.47
2018-08-31T05:39:02.778Z,23.73
2018-08-31T05:43:46.303Z,23.88
2018-08-31T05:48:30.721Z,24.03
2018-08-31T05:53:15.314Z,24.07
2018-08-31T05:57:58.954Z,23.97
2018-08-31T06:02:42.320Z,24.12
2018-08-31T06:07:28.779Z,24.13
2018-08-31T06:12:12.155Z,24.09
2018-08-31T06:16:56.763Z,24.65
2018-08-31T06:21:40.078Z,24.73
2018-08-31T06:26:27.383Z,24.98
2018-08-31T06:31:10.870Z,25.58
2018-08-31T06:35:55.037Z,26.10
2018-08-31T06:40:38.579Z,26.10
2018-08-31T06:45:25.710Z,26.44
2018-08-31T06:50:11.031Z,26.30
2018-08-31T06:54:54.695Z,26.83
2018-08-31T06:59:38.094Z,27.40
2018-08-31T07:04:22.420Z,27.16
2018-08-31T07:09:11.446Z,27.58
2018-08-31T07:13:54.945Z,28.13
2018-08-31T07:18:47.816Z,27.83
2018-08-31T07:23:31.410Z,27.50
2018-08-31T07:28:18.810Z,27.73
2018-08-31T07:33:02.193Z,28.20
2018-08-31T07:37:51.759Z,27.87
2018-08-31T07:42:35.028Z,27.53
2018-08-31T07:47:23.533Z,28.37
2018-08-31T07:52:07.024Z,29.28
2018-08-31T07:57:00.144Z,29.33
2018-08-31T08:01:43.322Z,29.95
2018-08-31T08:06:27.858Z,30.53
2018-08-31T08:11:11.270Z,29.32
2018-08-31T08:15:58.201Z,29.00
2018-08-31T08:20:41.586Z,29.17
2018-08-31T08:25:30.752Z,30.73
2018-08-31T08:30:14.942Z,31.09
2018-08-31T08:35:04.012Z,30.72
2018-08-31T08:39:47.420Z,30.97
2018-08-31T08:44:34.053Z,31.36
2018-08-31T08:49:17.523Z,31.17
2018-08-31T08:54:05.440Z,31.58
2018-08-31T08:58:49.756Z,31.50
2018-08-31T09:03:33.575Z,32.29
2018-08-31T09:08:18.237Z,32.24
2018-08-31T09:13:01.722Z,32.11
2018-08-31T09:17:46.283Z,32.57
2018-08-31T09:22:29.778Z,32.59
2018-08-31T09:27:17.316Z,31.88
2018-08-31T09:32:05.335Z,32.17
2018-08-31T09:36:53.429Z,32.49
2018-08-31T09:41:37.069Z,33.62
2018-08-31T09:46:26.951Z,33.94
2018-08-31T09:51:14.071Z,33.87
2018-08-31T09:55:58.941Z,33.64
2018-08-31T10:00:47.557Z,33.58
2018-08-31T10:05:34.317Z,33.76
2018-08-31T10:10:18.636Z,33.26
2018-08-31T10:15:02.247Z,33.51
2018-08-31T10:19:45.417Z,33.83
2018-08-31T10:24:31.950Z,33.51
2018-08-31T10:29:16.316Z,33.84
2018-08-31T10:34:03.495Z,33.74
2018-08-31T10:38:46.923Z,33.68
2018-08-31T10:43:30.306Z,33.61
2018-08-31T10:48:13.676Z,33.46
2018-08-31T10:52:56.951Z,33.51
2018-08-31T10:57:41.694Z,33.26
2018-08-31T11:02:25.256Z,33.19
2018-08-31T11:07:12.708Z,33.06
2018-08-31T11:11:56.105Z,33.37
2018-08-31T11:16:44.600Z,33.39
2018-08-31T11:21:28.058Z,33.15
2018-08-31T11:26:17.571Z,33.46
2018-08-31T11:31:02.128Z,33.44
2018-08-31T11:35:48.858Z,33.25
2018-08-31T11:40:32.289Z,33.30
2018-08-31T11:45:19.435Z,33.23
2018-08-31T11:50:02.774Z,33.16
2018-08-31T11:54:51.730Z,33.23
2018-08-31T11:59:35.209Z,33.10
2018-08-31T12:04:22.652Z,32.80
2018-08-31T12:09:08.915Z,32.69
2018-08-31T12:13:56.463Z,32.69
2018-08-31T12:18:39.798Z,32.66
2018-08-31T12:23:28.864Z,32.59
2018-08-31T12:28:12.267Z,32.48
2018-08-31T12:32:55.661Z,32.34
2018-08-31T12:37:48.942Z,32.19
2018-08-31T12:42:32.837Z,32.13
2018-08-31T12:47:21.130Z,32.07
2018-08-31T12:52:04.607Z,32.09
2018-08-31T12:56:53.540Z,32.06
2018-08-31T13:01:36.850Z,31.99
2018-08-31T13:06:26.242Z,31.93
2018-08-31T13:11:09.735Z,31.74
2018-08-31T13:15:57.008Z,31.75
2018-08-31T13:20:41.462Z,31.54
2018-08-31T13:25:30.403Z,31.48
2018-08-31T13:30:13.847Z,31.39
2018-08-31T13:34:57.483Z,31.21
2018-08-31T13:39:40.820Z,31.02
2018-08-31T13:44:27.190Z,30.88
2018-08-31T13:49:10.633Z,30.82
2018-08-31T13:53:57.877Z,30.55
2018-08-31T13:58:41.137Z,30.46
2018-08-31T14:03:27.598Z,30.35
2018-08-31T14:08:11.018Z,30.29
2018-08-31T14:12:54.400Z,30.23
2018-08-31T14:17:37.993Z,30.19
2018-08-31T14:22:21.397Z,30.21
2018-08-31T14:27:08.368Z,30.04
2018-08-31T14:31:51.795Z,29.84
2018-08-31T14:36:45.093Z,29.67
2018-08-31T14:41:33.145Z,29.61
2018-08-31T14:46:26.937Z,29.58
2018-08-31T14:51:10.262Z,29.50
2018-08-31T14:55:57.155Z,29.43
2018-08-31T15:00:40.670Z,29.29
2018-08-31T15:05:28.401Z,29.23
2018-08-31T15:10:13.972Z,29.17
2018-08-31T15:14:58.290Z,29.14
2018-08-31T15:19:41.735Z,29.11
2018-08-31T15:24:25.186Z,29.01
2018-08-31T15:29:08.658Z,28.91
2018-08-31T15:33:53.021Z,28.86
2018-08-31T15:38:36.533Z,28.83
2018-08-31T15:43:23.967Z,28.82
2018-08-31T15:48:07.376Z,28.74
2018-08-31T15:52:54.113Z,28.65
2018-08-31T15:57:37.486Z,28.61
2018-08-31T16:02:20.824Z,28.54
2018-08-31T16:07:06.007Z,28.49
2018-08-31T16:11:49.461Z,28.46
2018-08-31T16:16:33.089Z,28.42
2018-08-31T16:21:16.533Z,28.36
2018-08-31T16:26:03.459Z,27.95
2018-08-31T16:30:46.886Z,28.05
2018-08-31T16:35:31.566Z,27.73
2018-08-31T16:40:14.968Z,27.63
2018-08-31T16:44:58.326Z,27.51
2018-08-31T16:49:41.848Z,27.70
2018-08-31T16:54:29.164Z,27.05
2018-08-31T16:59:12.512Z,26.65
2018-08-31T17:03:59.303Z,26.97
2018-08-31T17:08:42.924Z,26.29
2018-08-31T17:13:26.673Z,26.53
2018-08-31T17:18:10.357Z,26.96
2018-08-31T17:22:59.075Z,27.11
2018-08-31T17:27:47.931Z,27.11
2018-08-31T17:32:36.897Z,26.12
2018-08-31T17:37:26.008Z,26.48
2018-08-31T17:42:14.861Z,26.69
2018-08-31T17:47:07.542Z,25.45
2018-08-31T17:51:51.899Z,26.10
2018-08-31T17:56:37.055Z,26.32
2018-08-31T18:01:20.530Z,26.30
2018-08-31T18:06:14.052Z,26.25
2018-08-31T18:10:57.910Z,25.58
2018-08-31T18:15:42.624Z,25.47
2018-08-31T18:20:26.079Z,25.56
2018-08-31T18:25:12.694Z,25.88
2018-08-31T18:29:56.170Z,26.19
2018-08-31T18:34:42.925Z,26.32
2018-08-31T18:39:35.588Z,26.22
2018-08-31T18:44:20.259Z,25.86
2018-08-31T18:49:10.567Z,26.02
2018-08-31T18:53:54.318Z,25.68
2018-08-31T18:58:38.364Z,25.35
2018-08-31T19:03:25.085Z,25.69
2018-08-31T19:08:08.637Z,26.03
2018-08-31T19:12:56.047Z,26.16
2018-08-31T19:17:39.391Z,26.21
2018-08-31T19:22:23.167Z,26.06
2018-08-31T19:27:06.720Z,26.00
2018-08-31T19:31:52.095Z,26.09
2018-08-31T19:36:36.078Z,25.84
2018-08-31T19:41:20.050Z,26.05
2018-08-31T19:46:03.789Z,26.14
2018-08-31T19:50:47.271Z,26.14
2018-08-31T19:55:34.406Z,26.00
2018-08-31T20:00:17.823Z,25.65
2018-08-31T20:05:01.451Z,25.15
2018-08-31T20:09:45.023Z,24.85
2018-08-31T20:14:28.570Z,24.89
2018-08-31T20:19:12.061Z,25.23
2018-08-31T20:23:59.184Z,25.17
2018-08-31T20:28:42.579Z,25.15
2018-08-31T20:33:27.382Z,25.12
2018-08-31T20:38:10.839Z,24.77
2018-08-31T20:42:54.402Z,23.97
2018-08-31T20:47:37.875Z,24.25
2018-08-31T20:52:27.285Z,24.52
2018-08-31T20:57:10.759Z,24.00
2018-08-31T21:01:54.204Z,23.88
2018-08-31T21:06:37.828Z,24.04
2018-08-31T21:11:21.382Z,24.01
2018-08-31T21:16:05.199Z,24.45
2018-08-31T21:20:48.655Z,24.85
2018-08-31T21:25:35.850Z,24.39
2018-08-31T21:30:20.035Z,23.87
2018-08-31T21:35:03.645Z,24.12
2018-08-31T21:39:47.031Z,24.65
2018-08-31T21:44:31.487Z,24.90
2018-08-31T21:49:15.620Z,24.93
2018-08-31T21:54:00.659Z,24.97
2018-08-31T21:58:44.625Z,24.92
2018-08-31T22:03:29.416Z,24.93
2018-08-31T22:08:12.958Z,24.87
2018-08-31T22:12:57.676Z,24.78
2018-08-31T22:17:41.258Z,24.65
2018-08-31T22:22:26.021Z,24.61
2018-08-31T22:27:09.509Z,24.48
2018-08-31T22:31:54.228Z,24.63
2018-08-31T22:36:37.741Z,24.58
2018-08-31T22:41:21.198Z,24.52
2018-08-31T22:46:08.203Z,24.52
2018-08-31T22:50:51.953Z,24.54
2018-08-31T22:55:35.999Z,24.57
2018-08-31T23:00:19.394Z,24.40
2018-08-31T23:05:04.674Z,24.43
2018-08-31T23:09:48.025Z,24.35
2018-08-31T23:14:31.678Z,24.41
2018-08-31T23:19:15.023Z,24.25
2018-08-31T23:25:28.527Z,24.10
2018-08-31T23:30:12.008Z,23.91
2018-08-31T23:34:56.267Z,23.81
2018-08-31T23:39:39.698Z,23.45
2018-08-31T23:44:27.054Z,23.38
2018-08-31T23:49:10.442Z,23.51
2018-08-31T23:53:57.786Z,23.65
2018-08-31T23:58:41.261Z,23.92
